sensor_id;sensor_type;location;lat;lon;timestamp;P1;durP1;ratioP1;P2;durP2;ratioP2
57113;SDS011;42994;51.606;9.988;2023-10-09T00:01:42;4.53;;;1.70;;
57113;SDS011;42994;51.606;9.988;2023-10-09T00:04:09;4.18;;;1.60;;
57113;SDS011;42994;51.606;9.988;2023-10-09T00:06:37;2.72;;;1.58;;
57113;SDS011;42994;51.606;9.988;2023-10-09T00:09:04;7.47;;;1.90;;
57113;SDS011;42994;51.606;9.988;2023-10-09T00:11:45;5.70;;;1.90;;
57113;SDS011;42994;51.606;9.988;2023-10-09T00:14:13;2.85;;;1.77;;
57113;SDS011;42994;51.606;9.988;2023-10-09T00:16:41;2.60;;;1.90;;
57113;SDS011;42994;51.606;9.988;2023-10-09T00:21:43;5.95;;;1.60;;
57113;SDS011;42994;51.606;9.988;2023-10-09T00:24:11;3.30;;;1.63;;
57113;SDS011;42994;51.606;9.988;2023-10-09T00:26:43;3.40;;;1.50;;
57113;SDS011;42994;51.606;9.988;2023-10-09T00:29:12;2.67;;;1.42;;
57113;SDS011;42994;51.606;9.988;2023-10-09T00:31:47;4.88;;;1.60;;
57113;SDS011;42994;51.606;9.988;2023-10-09T00:34:21;2.72;;;1.70;;
57113;SDS011;42994;51.606;9.988;2023-10-09T00:36:51;3.33;;;1.80;;
57113;SDS011;42994;51.606;9.988;2023-10-09T00:39:19;2.35;;;1.30;;
57113;SDS011;42994;51.606;9.988;2023-10-09T00:42:08;3.83;;;1.70;;
57113;SDS011;42994;51.606;9.988;2023-10-09T00:44:37;8.27;;;1.80;;
57113;SDS011;42994;51.606;9.988;2023-10-09T00:47:04;3.88;;;1.50;;
57113;SDS011;42994;51.606;9.988;2023-10-09T00:49:45;3.63;;;1.80;;
57113;SDS011;42994;51.606;9.988;2023-10-09T00:52:14;4.32;;;1.33;;
57113;SDS011;42994;51.606;9.988;2023-10-09T00:54:51;2.97;;;1.52;;
57113;SDS011;42994;51.606;9.988;2023-10-09T00:57:20;1.65;;;1.30;;
57113;SDS011;42994;51.606;9.988;2023-10-09T00:59:52;3.17;;;1.63;;
57113;SDS011;42994;51.606;9.988;2023-10-09T01:02:25;1.70;;;1.50;;
57113;SDS011;42994;51.606;9.988;2023-10-09T01:05:01;1.75;;;1.63;;
57113;SDS011;42994;51.606;9.988;2023-10-09T01:07:43;3.53;;;1.30;;
57113;SDS011;42994;51.606;9.988;2023-10-09T01:10:12;4.53;;;2.00;;
57113;SDS011;42994;51.606;9.988;2023-10-09T01:12:43;5.65;;;1.80;;
57113;SDS011;42994;51.606;9.988;2023-10-09T01:15:14;2.13;;;1.40;;
57113;SDS011;42994;51.606;9.988;2023-10-09T01:18:01;1.85;;;1.38;;
57113;SDS011;42994;51.606;9.988;2023-10-09T01:20:29;2.45;;;1.70;;
57113;SDS011;42994;51.606;9.988;2023-10-09T01:23:08;2.67;;;2.00;;
57113;SDS011;42994;51.606;9.988;2023-10-09T01:25:36;5.95;;;1.80;;
57113;SDS011;42994;51.606;9.988;2023-10-09T01:28:09;2.83;;;1.45;;
57113;SDS011;42994;51.606;9.988;2023-10-09T01:30:41;5.18;;;1.80;;
57113;SDS011;42994;51.606;9.988;2023-10-09T01:33:08;4.30;;;1.88;;
57113;SDS011;42994;51.606;9.988;2023-10-09T01:35:47;3.50;;;2.22;;
57113;SDS011;42994;51.606;9.988;2023-10-09T01:38:18;3.55;;;1.98;;
57113;SDS011;42994;51.606;9.988;2023-10-09T01:40:55;5.53;;;3.13;;
57113;SDS011;42994;51.606;9.988;2023-10-09T01:43:29;11.32;;;4.00;;
57113;SDS011;42994;51.606;9.988;2023-10-09T01:45:57;8.63;;;5.43;;
57113;SDS011;42994;51.606;9.988;2023-10-09T01:48:27;13.48;;;5.03;;
57113;SDS011;42994;51.606;9.988;2023-10-09T01:50:54;14.77;;;5.13;;
57113;SDS011;42994;51.606;9.988;2023-10-09T01:53:22;9.68;;;4.57;;
57113;SDS011;42994;51.606;9.988;2023-10-09T01:55:54;10.75;;;4.60;;
57113;SDS011;42994;51.606;9.988;2023-10-09T01:58:21;9.68;;;5.43;;
57113;SDS011;42994;51.606;9.988;2023-10-09T02:00:52;12.27;;;4.93;;
57113;SDS011;42994;51.606;9.988;2023-10-09T02:03:20;10.40;;;5.40;;
57113;SDS011;42994;51.606;9.988;2023-10-09T02:05:49;13.43;;;5.70;;
57113;SDS011;42994;51.606;9.988;2023-10-09T02:08:18;17.33;;;5.13;;
57113;SDS011;42994;51.606;9.988;2023-10-09T02:10:48;11.23;;;4.97;;
57113;SDS011;42994;51.606;9.988;2023-10-09T02:13:15;10.10;;;5.40;;
57113;SDS011;42994;51.606;9.988;2023-10-09T02:15:43;13.27;;;5.07;;
57113;SDS011;42994;51.606;9.988;2023-10-09T02:18:26;16.77;;;5.72;;
57113;SDS011;42994;51.606;9.988;2023-10-09T02:21:05;13.13;;;5.65;;
57113;SDS011;42994;51.606;9.988;2023-10-09T02:23:38;14.50;;;5.65;;
57113;SDS011;42994;51.606;9.988;2023-10-09T02:26:07;10.45;;;5.75;;
57113;SDS011;42994;51.606;9.988;2023-10-09T02:28:36;11.48;;;5.97;;
57113;SDS011;42994;51.606;9.988;2023-10-09T02:31:09;14.23;;;6.22;;
57113;SDS011;42994;51.606;9.988;2023-10-09T02:33:36;9.45;;;5.68;;
57113;SDS011;42994;51.606;9.988;2023-10-09T02:36:04;13.40;;;6.18;;
57113;SDS011;42994;51.606;9.988;2023-10-09T02:38:31;19.05;;;5.80;;
57113;SDS011;42994;51.606;9.988;2023-10-09T02:41:00;7.43;;;5.10;;
57113;SDS011;42994;51.606;9.988;2023-10-09T02:43:46;8.70;;;4.70;;
57113;SDS011;42994;51.606;9.988;2023-10-09T02:46:16;10.15;;;4.38;;
57113;SDS011;42994;51.606;9.988;2023-10-09T02:48:44;13.68;;;4.43;;
57113;SDS011;42994;51.606;9.988;2023-10-09T02:51:15;7.05;;;4.20;;
57113;SDS011;42994;51.606;9.988;2023-10-09T02:53:57;8.50;;;4.28;;
57113;SDS011;42994;51.606;9.988;2023-10-09T02:56:33;11.00;;;4.63;;
57113;SDS011;42994;51.606;9.988;2023-10-09T02:59:05;9.93;;;4.88;;
57113;SDS011;42994;51.606;9.988;2023-10-09T03:01:34;13.82;;;4.90;;
57113;SDS011;42994;51.606;9.988;2023-10-09T03:04:03;10.90;;;5.25;;
57113;SDS011;42994;51.606;9.988;2023-10-09T03:06:31;11.70;;;5.55;;
57113;SDS011;42994;51.606;9.988;2023-10-09T03:08:59;11.88;;;4.38;;
57113;SDS011;42994;51.606;9.988;2023-10-09T03:11:41;9.85;;;4.22;;
57113;SDS011;42994;51.606;9.988;2023-10-09T03:14:10;5.93;;;3.92;;
57113;SDS011;42994;51.606;9.988;2023-10-09T03:16:36;9.68;;;4.25;;
57113;SDS011;42994;51.606;9.988;2023-10-09T03:19:03;11.63;;;4.65;;
57113;SDS011;42994;51.606;9.988;2023-10-09T03:21:30;10.95;;;4.50;;
57113;SDS011;42994;51.606;9.988;2023-10-09T03:23:57;6.80;;;4.35;;
57113;SDS011;42994;51.606;9.988;2023-10-09T03:26:23;11.35;;;3.67;;
57113;SDS011;42994;51.606;9.988;2023-10-09T03:28:51;11.77;;;4.40;;
57113;SDS011;42994;51.606;9.988;2023-10-09T03:31:20;8.13;;;4.05;;
57113;SDS011;42994;51.606;9.988;2023-10-09T03:33:48;10.70;;;4.65;;
57113;SDS011;42994;51.606;9.988;2023-10-09T03:36:15;15.43;;;6.60;;
57113;SDS011;42994;51.606;9.988;2023-10-09T03:38:42;11.10;;;5.93;;
57113;SDS011;42994;51.606;9.988;2023-10-09T03:41:09;15.48;;;6.55;;
57113;SDS011;42994;51.606;9.988;2023-10-09T03:43:38;10.43;;;4.85;;
57113;SDS011;42994;51.606;9.988;2023-10-09T03:46:07;21.15;;;9.50;;
57113;SDS011;42994;51.606;9.988;2023-10-09T03:48:47;20.50;;;9.32;;
57113;SDS011;42994;51.606;9.988;2023-10-09T03:51:13;20.05;;;9.55;;
57113;SDS011;42994;51.606;9.988;2023-10-09T03:53:46;14.65;;;9.10;;
57113;SDS011;42994;51.606;9.988;2023-10-09T03:56:13;21.60;;;10.40;;
57113;SDS011;42994;51.606;9.988;2023-10-09T03:58:41;19.60;;;10.32;;
57113;SDS011;42994;51.606;9.988;2023-10-09T04:01:10;24.08;;;10.32;;
57113;SDS011;42994;51.606;9.988;2023-10-09T04:03:43;18.38;;;9.90;;
57113;SDS011;42994;51.606;9.988;2023-10-09T04:06:11;27.77;;;10.98;;
57113;SDS011;42994;51.606;9.988;2023-10-09T04:08:38;22.85;;;11.32;;
57113;SDS011;42994;51.606;9.988;2023-10-09T04:11:12;20.55;;;10.75;;
57113;SDS011;42994;51.606;9.988;2023-10-09T04:13:42;20.08;;;8.55;;
57113;SDS011;42994;51.606;9.988;2023-10-09T04:16:11;26.13;;;11.00;;
57113;SDS011;42994;51.606;9.988;2023-10-09T04:18:59;20.73;;;10.30;;
57113;SDS011;42994;51.606;9.988;2023-10-09T04:21:33;19.38;;;10.40;;
57113;SDS011;42994;51.606;9.988;2023-10-09T04:24:01;19.48;;;9.82;;
57113;SDS011;42994;51.606;9.988;2023-10-09T04:26:46;26.88;;;11.25;;
57113;SDS011;42994;51.606;9.988;2023-10-09T04:29:13;19.52;;;10.70;;
57113;SDS011;42994;51.606;9.988;2023-10-09T04:31:44;23.40;;;10.40;;
57113;SDS011;42994;51.606;9.988;2023-10-09T04:34:17;21.42;;;10.07;;
57113;SDS011;42994;51.606;9.988;2023-10-09T04:36:56;17.15;;;9.88;;
57113;SDS011;42994;51.606;9.988;2023-10-09T04:39:26;19.33;;;9.30;;
57113;SDS011;42994;51.606;9.988;2023-10-09T04:42:02;20.60;;;9.68;;
57113;SDS011;42994;51.606;9.988;2023-10-09T04:44:51;22.90;;;10.93;;
57113;SDS011;42994;51.606;9.988;2023-10-09T04:47:38;20.35;;;10.32;;
57113;SDS011;42994;51.606;9.988;2023-10-09T04:50:15;18.13;;;10.80;;
57113;SDS011;42994;51.606;9.988;2023-10-09T04:53:03;26.80;;;10.50;;
57113;SDS011;42994;51.606;9.988;2023-10-09T04:55:47;19.27;;;10.38;;
57113;SDS011;42994;51.606;9.988;2023-10-09T04:58:20;18.02;;;10.07;;
57113;SDS011;42994;51.606;9.988;2023-10-09T05:00:50;20.17;;;9.95;;
57113;SDS011;42994;51.606;9.988;2023-10-09T05:03:29;26.42;;;11.02;;
57113;SDS011;42994;51.606;9.988;2023-10-09T05:06:10;18.98;;;10.05;;
57113;SDS011;42994;51.606;9.988;2023-10-09T05:08:56;20.35;;;10.30;;
57113;SDS011;42994;51.606;9.988;2023-10-09T05:11:33;17.75;;;8.80;;
57113;SDS011;42994;51.606;9.988;2023-10-09T05:14:18;16.98;;;9.45;;
57113;SDS011;42994;51.606;9.988;2023-10-09T05:16:52;18.30;;;9.98;;
57113;SDS011;42994;51.606;9.988;2023-10-09T05:19:21;18.58;;;9.48;;
57113;SDS011;42994;51.606;9.988;2023-10-09T05:22:11;17.83;;;10.43;;
57113;SDS011;42994;51.606;9.988;2023-10-09T05:24:56;29.35;;;9.88;;
57113;SDS011;42994;51.606;9.988;2023-10-09T05:27:23;21.95;;;9.60;;
57113;SDS011;42994;51.606;9.988;2023-10-09T05:30:07;20.20;;;9.93;;
57113;SDS011;42994;51.606;9.988;2023-10-09T05:32:51;19.00;;;10.05;;
57113;SDS011;42994;51.606;9.988;2023-10-09T05:35:23;23.75;;;8.73;;
57113;SDS011;42994;51.606;9.988;2023-10-09T05:38:05;17.02;;;9.40;;
57113;SDS011;42994;51.606;9.988;2023-10-09T05:40:50;16.48;;;9.40;;
57113;SDS011;42994;51.606;9.988;2023-10-09T05:43:29;17.13;;;8.93;;
57113;SDS011;42994;51.606;9.988;2023-10-09T05:46:13;19.20;;;8.88;;
57113;SDS011;42994;51.606;9.988;2023-10-09T05:48:40;20.40;;;10.30;;
57113;SDS011;42994;51.606;9.988;2023-10-09T05:51:24;19.65;;;9.50;;
57113;SDS011;42994;51.606;9.988;2023-10-09T05:54:04;18.95;;;10.25;;
57113;SDS011;42994;51.606;9.988;2023-10-09T05:57:01;16.42;;;9.52;;
57113;SDS011;42994;51.606;9.988;2023-10-09T05:59:45;16.60;;;9.73;;
57113;SDS011;42994;51.606;9.988;2023-10-09T06:02:37;20.40;;;10.88;;
57113;SDS011;42994;51.606;9.988;2023-10-09T06:08:00;19.98;;;10.15;;
57113;SDS011;42994;51.606;9.988;2023-10-09T06:10:33;17.33;;;9.52;;
57113;SDS011;42994;51.606;9.988;2023-10-09T06:13:08;21.83;;;10.27;;
57113;SDS011;42994;51.606;9.988;2023-10-09T06:16:02;16.92;;;9.68;;
57113;SDS011;42994;51.606;9.988;2023-10-09T06:18:45;20.52;;;9.32;;
57113;SDS011;42994;51.606;9.988;2023-10-09T06:21:19;28.60;;;10.90;;
57113;SDS011;42994;51.606;9.988;2023-10-09T06:24:26;15.95;;;8.10;;
57113;SDS011;42994;51.606;9.988;2023-10-09T06:26:58;17.17;;;9.35;;
57113;SDS011;42994;51.606;9.988;2023-10-09T06:29:50;17.00;;;9.60;;
57113;SDS011;42994;51.606;9.988;2023-10-09T06:32:17;19.30;;;9.45;;
57113;SDS011;42994;51.606;9.988;2023-10-09T06:35:00;18.13;;;9.30;;
57113;SDS011;42994;51.606;9.988;2023-10-09T06:37:54;16.45;;;9.70;;
57113;SDS011;42994;51.606;9.988;2023-10-09T06:40:38;17.40;;;8.85;;
57113;SDS011;42994;51.606;9.988;2023-10-09T06:43:23;21.52;;;8.55;;
57113;SDS011;42994;51.606;9.988;2023-10-09T06:45:53;16.15;;;8.38;;
57113;SDS011;42994;51.606;9.988;2023-10-09T06:48:20;19.48;;;8.73;;
57113;SDS011;42994;51.606;9.988;2023-10-09T06:51:05;15.38;;;8.88;;
57113;SDS011;42994;51.606;9.988;2023-10-09T06:53:39;18.08;;;8.00;;
57113;SDS011;42994;51.606;9.988;2023-10-09T06:56:24;15.32;;;8.63;;
57113;SDS011;42994;51.606;9.988;2023-10-09T06:59:12;17.90;;;9.07;;
57113;SDS011;42994;51.606;9.988;2023-10-09T07:01:46;14.77;;;7.60;;
57113;SDS011;42994;51.606;9.988;2023-10-09T07:04:33;22.10;;;8.45;;
57113;SDS011;42994;51.606;9.988;2023-10-09T07:07:11;16.75;;;8.77;;
57113;SDS011;42994;51.606;9.988;2023-10-09T07:09:41;15.55;;;8.70;;
57113;SDS011;42994;51.606;9.988;2023-10-09T07:12:07;15.10;;;8.07;;
57113;SDS011;42994;51.606;9.988;2023-10-09T07:14:39;18.45;;;8.15;;
57113;SDS011;42994;51.606;9.988;2023-10-09T07:17:26;16.65;;;8.38;;
57113;SDS011;42994;51.606;9.988;2023-10-09T07:20:10;17.17;;;7.60;;
57113;SDS011;42994;51.606;9.988;2023-10-09T07:22:41;18.75;;;8.52;;
57113;SDS011;42994;51.606;9.988;2023-10-09T07:25:23;15.52;;;8.90;;
57113;SDS011;42994;51.606;9.988;2023-10-09T07:28:21;17.15;;;7.85;;
57113;SDS011;42994;51.606;9.988;2023-10-09T07:31:09;15.85;;;9.05;;
57113;SDS011;42994;51.606;9.988;2023-10-09T07:33:49;19.98;;;9.05;;
57113;SDS011;42994;51.606;9.988;2023-10-09T07:36:22;23.77;;;8.52;;
57113;SDS011;42994;51.606;9.988;2023-10-09T07:38:59;17.00;;;9.57;;
57113;SDS011;42994;51.606;9.988;2023-10-09T07:41:34;14.60;;;8.70;;
57113;SDS011;42994;51.606;9.988;2023-10-09T07:44:04;17.27;;;8.85;;
57113;SDS011;42994;51.606;9.988;2023-10-09T07:46:59;17.40;;;9.00;;
57113;SDS011;42994;51.606;9.988;2023-10-09T07:49:42;17.13;;;8.32;;
57113;SDS011;42994;51.606;9.988;2023-10-09T07:52:14;15.95;;;9.18;;
57113;SDS011;42994;51.606;9.988;2023-10-09T07:54:42;17.13;;;9.10;;
57113;SDS011;42994;51.606;9.988;2023-10-09T07:57:16;19.88;;;10.60;;
57113;SDS011;42994;51.606;9.988;2023-10-09T07:59:50;16.40;;;9.40;;
57113;SDS011;42994;51.606;9.988;2023-10-09T08:02:27;20.65;;;9.77;;
57113;SDS011;42994;51.606;9.988;2023-10-09T08:05:00;19.15;;;9.93;;
57113;SDS011;42994;51.606;9.988;2023-10-09T08:07:32;21.20;;;9.25;;
57113;SDS011;42994;51.606;9.988;2023-10-09T08:10:02;20.30;;;10.00;;
57113;SDS011;42994;51.606;9.988;2023-10-09T08:12:48;18.10;;;10.52;;
57113;SDS011;42994;51.606;9.988;2023-10-09T08:15:24;19.73;;;9.75;;
57113;SDS011;42994;51.606;9.988;2023-10-09T08:18:00;17.13;;;10.38;;
57113;SDS011;42994;51.606;9.988;2023-10-09T08:20:35;22.00;;;10.98;;
57113;SDS011;42994;51.606;9.988;2023-10-09T08:23:36;25.15;;;11.45;;
57113;SDS011;42994;51.606;9.988;2023-10-09T08:26:14;21.02;;;10.70;;
57113;SDS011;42994;51.606;9.988;2023-10-09T08:28:55;16.83;;;10.02;;
57113;SDS011;42994;51.606;9.988;2023-10-09T08:31:41;21.30;;;10.85;;
57113;SDS011;42994;51.606;9.988;2023-10-09T08:34:11;18.40;;;10.30;;
57113;SDS011;42994;51.606;9.988;2023-10-09T08:36:49;18.75;;;10.63;;
57113;SDS011;42994;51.606;9.988;2023-10-09T08:39:18;16.77;;;10.77;;
57113;SDS011;42994;51.606;9.988;2023-10-09T08:41:50;17.30;;;10.43;;
57113;SDS011;42994;51.606;9.988;2023-10-09T08:44:20;19.50;;;10.95;;
57113;SDS011;42994;51.606;9.988;2023-10-09T08:46:50;22.88;;;10.70;;
57113;SDS011;42994;51.606;9.988;2023-10-09T08:49:17;18.42;;;11.63;;
57113;SDS011;42994;51.606;9.988;2023-10-09T08:51:44;18.98;;;11.23;;
57113;SDS011;42994;51.606;9.988;2023-10-09T08:54:12;27.42;;;11.00;;
57113;SDS011;42994;51.606;9.988;2023-10-09T08:56:40;17.52;;;11.35;;
57113;SDS011;42994;51.606;9.988;2023-10-09T08:59:14;20.15;;;10.82;;
57113;SDS011;42994;51.606;9.988;2023-10-09T09:01:44;20.30;;;11.30;;
57113;SDS011;42994;51.606;9.988;2023-10-09T09:07:03;22.08;;;11.45;;
57113;SDS011;42994;51.606;9.988;2023-10-09T09:09:30;22.02;;;11.77;;
57113;SDS011;42994;51.606;9.988;2023-10-09T09:11:59;20.77;;;11.40;;
57113;SDS011;42994;51.606;9.988;2023-10-09T09:14:35;18.98;;;11.15;;
57113;SDS011;42994;51.606;9.988;2023-10-09T09:17:03;16.95;;;11.23;;
57113;SDS011;42994;51.606;9.988;2023-10-09T09:19:31;22.50;;;11.32;;
57113;SDS011;42994;51.606;9.988;2023-10-09T09:22:03;18.88;;;11.02;;
57113;SDS011;42994;51.606;9.988;2023-10-09T09:24:37;19.17;;;11.18;;
57113;SDS011;42994;51.606;9.988;2023-10-09T09:27:10;19.95;;;10.95;;
57113;SDS011;42994;51.606;9.988;2023-10-09T09:29:43;17.10;;;10.73;;
57113;SDS011;42994;51.606;9.988;2023-10-09T09:32:25;20.17;;;11.13;;
57113;SDS011;42994;51.606;9.988;2023-10-09T09:35:00;20.58;;;11.43;;
57113;SDS011;42994;51.606;9.988;2023-10-09T09:37:30;19.85;;;10.98;;
57113;SDS011;42994;51.606;9.988;2023-10-09T09:40:11;25.05;;;12.60;;
57113;SDS011;42994;51.606;9.988;2023-10-09T09:42:40;22.73;;;11.82;;
57113;SDS011;42994;51.606;9.988;2023-10-09T09:45:10;23.58;;;14.70;;
57113;SDS011;42994;51.606;9.988;2023-10-09T09:47:38;18.20;;;11.05;;
57113;SDS011;42994;51.606;9.988;2023-10-09T09:50:12;17.88;;;10.20;;
57113;SDS011;42994;51.606;9.988;2023-10-09T09:52:48;15.80;;;10.65;;
57113;SDS011;42994;51.606;9.988;2023-10-09T09:55:18;24.30;;;11.60;;
57113;SDS011;42994;51.606;9.988;2023-10-09T09:57:47;18.27;;;11.75;;
57113;SDS011;42994;51.606;9.988;2023-10-09T10:00:16;17.45;;;11.18;;
57113;SDS011;42994;51.606;9.988;2023-10-09T10:02:57;18.20;;;11.05;;
57113;SDS011;42994;51.606;9.988;2023-10-09T10:05:28;18.45;;;10.32;;
57113;SDS011;42994;51.606;9.988;2023-10-09T10:07:57;20.02;;;10.15;;
57113;SDS011;42994;51.606;9.988;2023-10-09T10:10:37;23.42;;;11.40;;
57113;SDS011;42994;51.606;9.988;2023-10-09T10:13:16;21.73;;;9.50;;
57113;SDS011;42994;51.606;9.988;2023-10-09T10:15:59;21.00;;;12.38;;
57113;SDS011;42994;51.606;9.988;2023-10-09T10:21:32;20.60;;;9.90;;
57113;SDS011;42994;51.606;9.988;2023-10-09T10:24:04;19.88;;;10.68;;
57113;SDS011;42994;51.606;9.988;2023-10-09T10:29:43;17.38;;;8.93;;
57113;SDS011;42994;51.606;9.988;2023-10-09T10:32:11;14.45;;;8.98;;
57113;SDS011;42994;51.606;9.988;2023-10-09T10:34:52;15.13;;;9.35;;
57113;SDS011;42994;51.606;9.988;2023-10-09T10:37:33;13.10;;;9.52;;
57113;SDS011;42994;51.606;9.988;2023-10-09T10:40:03;25.30;;;9.18;;
57113;SDS011;42994;51.606;9.988;2023-10-09T10:42:46;16.80;;;7.63;;
57113;SDS011;42994;51.606;9.988;2023-10-09T10:45:23;15.43;;;10.55;;
57113;SDS011;42994;51.606;9.988;2023-10-09T10:48:00;15.93;;;10.35;;
57113;SDS011;42994;51.606;9.988;2023-10-09T10:50:35;15.30;;;9.15;;
57113;SDS011;42994;51.606;9.988;2023-10-09T10:53:09;14.57;;;8.35;;
57113;SDS011;42994;51.606;9.988;2023-10-09T10:55:39;13.13;;;8.02;;
57113;SDS011;42994;51.606;9.988;2023-10-09T10:58:21;19.00;;;11.20;;
57113;SDS011;42994;51.606;9.988;2023-10-09T11:01:00;16.95;;;9.10;;
57113;SDS011;42994;51.606;9.988;2023-10-09T11:03:40;16.42;;;10.43;;
57113;SDS011;42994;51.606;9.988;2023-10-09T11:06:27;15.95;;;8.68;;
57113;SDS011;42994;51.606;9.988;2023-10-09T11:09:04;11.75;;;7.85;;
57113;SDS011;42994;51.606;9.988;2023-10-09T11:11:47;11.88;;;7.78;;
57113;SDS011;42994;51.606;9.988;2023-10-09T11:14:15;10.70;;;7.72;;
57113;SDS011;42994;51.606;9.988;2023-10-09T11:19:14;16.35;;;7.72;;
57113;SDS011;42994;51.606;9.988;2023-10-09T11:22:06;11.30;;;8.00;;
57113;SDS011;42994;51.606;9.988;2023-10-09T11:24:53;12.45;;;7.57;;
57113;SDS011;42994;51.606;9.988;2023-10-09T11:27:39;16.27;;;8.38;;
57113;SDS011;42994;51.606;9.988;2023-10-09T11:30:15;11.32;;;7.90;;
57113;SDS011;42994;51.606;9.988;2023-10-09T11:32:46;15.65;;;7.72;;
57113;SDS011;42994;51.606;9.988;2023-10-09T11:35:14;12.40;;;7.20;;
57113;SDS011;42994;51.606;9.988;2023-10-09T11:37:56;14.80;;;8.35;;
57113;SDS011;42994;51.606;9.988;2023-10-09T11:40:28;16.33;;;8.18;;
57113;SDS011;42994;51.606;9.988;2023-10-09T11:43:12;14.63;;;7.43;;
57113;SDS011;42994;51.606;9.988;2023-10-09T11:45:39;14.73;;;8.43;;
57113;SDS011;42994;51.606;9.988;2023-10-09T11:48:19;15.93;;;8.57;;
57113;SDS011;42994;51.606;9.988;2023-10-09T11:50:58;14.77;;;7.93;;
57113;SDS011;42994;51.606;9.988;2023-10-09T11:53:45;14.05;;;7.53;;
57113;SDS011;42994;51.606;9.988;2023-10-09T11:56:14;12.80;;;6.88;;
57113;SDS011;42994;51.606;9.988;2023-10-09T11:58:46;14.52;;;7.70;;
57113;SDS011;42994;51.606;9.988;2023-10-09T12:01:15;9.73;;;6.75;;
57113;SDS011;42994;51.606;9.988;2023-10-09T12:03:45;16.50;;;6.57;;
57113;SDS011;42994;51.606;9.988;2023-10-09T12:06:15;11.35;;;7.85;;
57113;SDS011;42994;51.606;9.988;2023-10-09T12:08:45;13.82;;;7.20;;
57113;SDS011;42994;51.606;9.988;2023-10-09T12:11:13;15.07;;;7.43;;
57113;SDS011;42994;51.606;9.988;2023-10-09T12:13:47;16.95;;;7.35;;
57113;SDS011;42994;51.606;9.988;2023-10-09T12:16:14;16.15;;;7.32;;
57113;SDS011;42994;51.606;9.988;2023-10-09T12:18:41;15.80;;;8.48;;
57113;SDS011;42994;51.606;9.988;2023-10-09T12:21:13;15.18;;;7.38;;
57113;SDS011;42994;51.606;9.988;2023-10-09T12:23:41;14.48;;;7.63;;
57113;SDS011;42994;51.606;9.988;2023-10-09T12:26:11;14.25;;;8.00;;
57113;SDS011;42994;51.606;9.988;2023-10-09T12:28:39;14.73;;;8.07;;
57113;SDS011;42994;51.606;9.988;2023-10-09T12:31:11;16.58;;;9.00;;
57113;SDS011;42994;51.606;9.988;2023-10-09T12:33:40;14.77;;;7.88;;
57113;SDS011;42994;51.606;9.988;2023-10-09T12:36:10;17.30;;;8.27;;
57113;SDS011;42994;51.606;9.988;2023-10-09T12:38:43;19.67;;;8.63;;
57113;SDS011;42994;51.606;9.988;2023-10-09T12:41:12;19.38;;;9.38;;
57113;SDS011;42994;51.606;9.988;2023-10-09T12:43:45;17.67;;;8.27;;
57113;SDS011;42994;51.606;9.988;2023-10-09T12:46:12;14.88;;;9.18;;
57113;SDS011;42994;51.606;9.988;2023-10-09T12:48:41;13.52;;;8.55;;
57113;SDS011;42994;51.606;9.988;2023-10-09T12:51:11;14.27;;;8.27;;
57113;SDS011;42994;51.606;9.988;2023-10-09T12:53:41;16.77;;;8.93;;
57113;SDS011;42994;51.606;9.988;2023-10-09T12:56:08;16.08;;;9.45;;
57113;SDS011;42994;51.606;9.988;2023-10-09T12:58:38;18.77;;;8.93;;
57113;SDS011;42994;51.606;9.988;2023-10-09T13:01:05;21.33;;;13.27;;
57113;SDS011;42994;51.606;9.988;2023-10-09T13:03:36;23.58;;;12.73;;
57113;SDS011;42994;51.606;9.988;2023-10-09T13:06:04;19.90;;;14.35;;
57113;SDS011;42994;51.606;9.988;2023-10-09T13:08:35;25.27;;;13.00;;
57113;SDS011;42994;51.606;9.988;2023-10-09T13:11:06;20.33;;;13.30;;
57113;SDS011;42994;51.606;9.988;2023-10-09T13:13:36;21.90;;;13.38;;
57113;SDS011;42994;51.606;9.988;2023-10-09T13:16:09;28.55;;;17.77;;
57113;SDS011;42994;51.606;9.988;2023-10-09T13:18:38;28.73;;;14.60;;
57113;SDS011;42994;51.606;9.988;2023-10-09T13:21:05;25.55;;;14.63;;
57113;SDS011;42994;51.606;9.988;2023-10-09T13:23:32;28.98;;;16.85;;
57113;SDS011;42994;51.606;9.988;2023-10-09T13:26:06;27.52;;;16.23;;
57113;SDS011;42994;51.606;9.988;2023-10-09T13:28:48;30.88;;;20.23;;
57113;SDS011;42994;51.606;9.988;2023-10-09T13:31:15;29.85;;;20.58;;
57113;SDS011;42994;51.606;9.988;2023-10-09T13:33:43;33.92;;;23.25;;
57113;SDS011;42994;51.606;9.988;2023-10-09T13:36:11;33.40;;;24.50;;
57113;SDS011;42994;51.606;9.988;2023-10-09T13:38:52;40.13;;;28.02;;
57113;SDS011;42994;51.606;9.988;2023-10-09T13:41:19;41.75;;;27.13;;
57113;SDS011;42994;51.606;9.988;2023-10-09T13:43:47;36.90;;;26.45;;
57113;SDS011;42994;51.606;9.988;2023-10-09T13:46:16;42.03;;;28.25;;
57113;SDS011;42994;51.606;9.988;2023-10-09T13:48:43;42.80;;;28.65;;
57113;SDS011;42994;51.606;9.988;2023-10-09T13:51:10;41.42;;;29.27;;
57113;SDS011;42994;51.606;9.988;2023-10-09T13:53:42;42.72;;;30.73;;
57113;SDS011;42994;51.606;9.988;2023-10-09T13:56:13;47.80;;;31.80;;
57113;SDS011;42994;51.606;9.988;2023-10-09T13:58:44;45.05;;;30.67;;
57113;SDS011;42994;51.606;9.988;2023-10-09T14:01:12;42.42;;;28.85;;
57113;SDS011;42994;51.606;9.988;2023-10-09T14:03:46;42.88;;;29.98;;
57113;SDS011;42994;51.606;9.988;2023-10-09T14:06:15;41.85;;;30.75;;
57113;SDS011;42994;51.606;9.988;2023-10-09T14:08:45;41.92;;;29.05;;
57113;SDS011;42994;51.606;9.988;2023-10-09T14:11:11;53.25;;;32.38;;
57113;SDS011;42994;51.606;9.988;2023-10-09T14:13:38;47.55;;;33.85;;
57113;SDS011;42994;51.606;9.988;2023-10-09T14:16:05;45.30;;;34.67;;
57113;SDS011;42994;51.606;9.988;2023-10-09T14:18:47;41.80;;;32.03;;
57113;SDS011;42994;51.606;9.988;2023-10-09T14:21:14;42.97;;;31.63;;
57113;SDS011;42994;51.606;9.988;2023-10-09T14:23:41;53.25;;;36.65;;
57113;SDS011;42994;51.606;9.988;2023-10-09T14:26:12;46.60;;;34.38;;
57113;SDS011;42994;51.606;9.988;2023-10-09T14:28:38;56.80;;;35.70;;
57113;SDS011;42994;51.606;9.988;2023-10-09T14:31:07;48.28;;;37.47;;
57113;SDS011;42994;51.606;9.988;2023-10-09T14:33:37;51.97;;;37.88;;
57113;SDS011;42994;51.606;9.988;2023-10-09T14:36:07;52.58;;;39.78;;
57113;SDS011;42994;51.606;9.988;2023-10-09T14:38:33;83.05;;;57.03;;
57113;SDS011;42994;51.606;9.988;2023-10-09T14:41:03;49.90;;;37.78;;
57113;SDS011;42994;51.606;9.988;2023-10-09T14:43:36;59.88;;;41.63;;
57113;SDS011;42994;51.606;9.988;2023-10-09T14:46:03;49.10;;;39.90;;
57113;SDS011;42994;51.606;9.988;2023-10-09T14:48:36;52.85;;;40.58;;
57113;SDS011;42994;51.606;9.988;2023-10-09T14:51:03;51.45;;;40.33;;
57113;SDS011;42994;51.606;9.988;2023-10-09T14:53:33;58.42;;;39.70;;
57113;SDS011;42994;51.606;9.988;2023-10-09T14:56:00;53.63;;;41.15;;
57113;SDS011;42994;51.606;9.988;2023-10-09T14:58:28;66.50;;;48.40;;
57113;SDS011;42994;51.606;9.988;2023-10-09T15:00:58;59.85;;;43.88;;
57113;SDS011;42994;51.606;9.988;2023-10-09T15:03:35;60.35;;;41.50;;
57113;SDS011;42994;51.606;9.988;2023-10-09T15:06:02;55.40;;;40.83;;
57113;SDS011;42994;51.606;9.988;2023-10-09T15:08:34;51.53;;;40.80;;
57113;SDS011;42994;51.606;9.988;2023-10-09T15:11:01;52.22;;;38.97;;
57113;SDS011;42994;51.606;9.988;2023-10-09T15:13:28;59.00;;;44.08;;
57113;SDS011;42994;51.606;9.988;2023-10-09T15:15:55;52.78;;;41.38;;
57113;SDS011;42994;51.606;9.988;2023-10-09T15:18:22;51.63;;;39.35;;
57113;SDS011;42994;51.606;9.988;2023-10-09T15:20:50;50.85;;;39.90;;
57113;SDS011;42994;51.606;9.988;2023-10-09T15:23:17;54.17;;;39.78;;
57113;SDS011;42994;51.606;9.988;2023-10-09T15:25:46;48.45;;;38.30;;